createdAt,value
2023-05-07T00:00:48.058Z,23.63
2023-05-07T00:03:15.463Z,25.45
2023-05-07T00:05:43.707Z,24.50
2023-05-07T00:08:11.388Z,24.42
2023-05-07T00:10:38.768Z,21.40
2023-05-07T00:13:06.230Z,24.95
2023-05-07T00:15:33.631Z,22.38
2023-05-07T00:18:01.128Z,20.67
2023-05-07T00:20:28.537Z,27.05
2023-05-07T00:22:56.071Z,26.20
2023-05-07T00:25:23.577Z,24.75
2023-05-07T00:27:50.984Z,23.77
2023-05-07T00:30:18.530Z,24.88
2023-05-07T00:32:50.849Z,27.25
2023-05-07T00:37:45.605Z,32.38
2023-05-07T00:40:13.311Z,29.77
2023-05-07T00:42:40.961Z,27.27
2023-05-07T00:45:08.944Z,26.23
2023-05-07T00:47:36.514Z,27.67
2023-05-07T00:50:08.531Z,26.48
2023-05-07T00:52:36.915Z,25.67
2023-05-07T00:55:08.668Z,24.65
2023-05-07T00:57:42.000Z,28.80
2023-05-07T01:00:11.053Z,27.52
2023-05-07T01:02:39.691Z,27.25
2023-05-07T01:05:10.274Z,24.52
2023-05-07T01:07:39.507Z,32.95
2023-05-07T01:10:08.511Z,26.42
2023-05-07T01:12:37.568Z,25.90
2023-05-07T01:15:07.104Z,28.13
2023-05-07T01:17:38.956Z,27.50
2023-05-07T01:20:10.348Z,24.00
2023-05-07T01:22:39.643Z,27.13
2023-05-07T01:25:09.202Z,31.40
2023-05-07T01:27:40.664Z,25.77
2023-05-07T01:30:08.833Z,28.33
2023-05-07T01:32:41.956Z,26.33
2023-05-07T01:35:13.273Z,26.77
2023-05-07T01:37:41.814Z,27.55
2023-05-07T01:40:09.957Z,27.85
2023-05-07T01:42:37.828Z,29.15
2023-05-07T01:45:06.316Z,24.95
2023-05-07T01:47:34.628Z,28.75
2023-05-07T01:50:02.179Z,31.00
2023-05-07T01:52:30.277Z,27.20
2023-05-07T01:54:57.625Z,28.10
2023-05-07T01:57:25.083Z,32.85
2023-05-07T01:59:52.492Z,30.05
2023-05-07T02:02:19.845Z,31.00
2023-05-07T02:04:47.926Z,30.05
2023-05-07T02:07:16.864Z,31.70
2023-05-07T02:09:44.289Z,30.45
2023-05-07T02:12:12.200Z,29.30
2023-05-07T02:14:39.634Z,26.38
2023-05-07T02:17:07.220Z,28.17
2023-05-07T02:19:36.182Z,32.45
2023-05-07T02:22:03.648Z,28.17
2023-05-07T02:24:31.692Z,32.03
2023-05-07T02:26:59.177Z,32.25
2023-05-07T02:29:26.699Z,31.58
2023-05-07T02:31:55.364Z,34.63
2023-05-07T02:34:23.023Z,33.78
2023-05-07T02:36:50.456Z,32.55
2023-05-07T02:39:21.696Z,39.88
2023-05-07T02:41:49.096Z,30.83
2023-05-07T02:44:16.605Z,30.35
2023-05-07T02:46:44.971Z,33.05
2023-05-07T02:49:13.832Z,30.88
2023-05-07T02:51:41.267Z,37.20
2023-05-07T02:54:13.841Z,35.63
2023-05-07T02:56:41.505Z,32.17
2023-05-07T02:59:08.876Z,36.28
2023-05-07T03:01:40.716Z,37.40
2023-05-07T03:04:09.655Z,32.83
2023-05-07T03:06:37.158Z,31.15
2023-05-07T03:09:04.595Z,31.98
2023-05-07T03:11:32.064Z,32.13
2023-05-07T03:13:59.567Z,34.65
2023-05-07T03:16:27.088Z,37.72
2023-05-07T03:18:55.150Z,33.55
2023-05-07T03:21:22.599Z,36.28
2023-05-07T03:23:50.563Z,33.75
2023-05-07T03:26:17.952Z,33.10
2023-05-07T03:28:46.245Z,34.80
2023-05-07T03:31:16.135Z,33.38
2023-05-07T03:33:54.537Z,31.88
2023-05-07T03:36:22.101Z,35.55
2023-05-07T03:38:50.320Z,33.22
2023-05-07T03:41:21.773Z,35.30
2023-05-07T03:43:49.256Z,39.20
2023-05-07T03:46:17.081Z,33.55
2023-05-07T03:48:44.906Z,34.58
2023-05-07T03:51:14.506Z,33.88
2023-05-07T03:53:41.987Z,36.08
2023-05-07T03:56:09.747Z,39.25
2023-05-07T03:58:39.965Z,35.65
2023-05-07T04:01:10.549Z,33.67
2023-05-07T04:03:38.241Z,37.15
2023-05-07T04:06:06.042Z,39.03
2023-05-07T04:08:35.783Z,34.10
2023-05-07T04:11:04.666Z,35.10
2023-05-07T04:13:34.167Z,35.25
2023-05-07T04:16:05.132Z,34.35
2023-05-07T04:18:33.542Z,33.03
2023-05-07T04:21:01.004Z,32.17
2023-05-07T04:23:28.900Z,31.67
2023-05-07T04:25:58.412Z,30.20
2023-05-07T04:28:32.338Z,35.33
2023-05-07T04:30:59.767Z,31.08
2023-05-07T04:33:27.717Z,34.33
2023-05-07T04:35:57.521Z,36.60
2023-05-07T04:38:25.230Z,31.63
2023-05-07T04:40:54.315Z,36.72
2023-05-07T04:43:24.826Z,32.97
2023-05-07T04:45:53.295Z,33.70
2023-05-07T04:48:22.873Z,32.60
2023-05-07T04:50:52.197Z,33.53
2023-05-07T04:53:21.157Z,32.85
2023-05-07T04:55:49.736Z,32.35
2023-05-07T04:58:17.878Z,34.22
2023-05-07T05:00:47.675Z,30.95
2023-05-07T05:03:15.179Z,33.78
2023-05-07T05:05:42.949Z,32.85
2023-05-07T05:08:10.573Z,46.03
2023-05-07T05:10:42.607Z,37.03
2023-05-07T05:13:10.740Z,39.33
2023-05-07T05:15:38.242Z,37.03
2023-05-07T05:18:06.211Z,38.03
2023-05-07T05:20:33.878Z,36.03
2023-05-07T05:23:01.362Z,37.90
2023-05-07T05:25:29.509Z,38.58
2023-05-07T05:27:57.872Z,35.90
2023-05-07T05:30:25.728Z,39.50
2023-05-07T05:32:53.300Z,37.83
2023-05-07T05:35:26.973Z,31.98
2023-05-07T05:37:54.416Z,37.55
2023-05-07T05:40:21.944Z,31.13
2023-05-07T05:42:49.486Z,33.17
2023-05-07T05:45:18.750Z,31.73
2023-05-07T05:47:46.841Z,30.58
2023-05-07T05:50:17.571Z,31.80
2023-05-07T05:52:45.629Z,30.00
2023-05-07T05:55:13.317Z,32.03
2023-05-07T05:57:41.247Z,29.73
2023-05-07T06:00:10.295Z,31.23
2023-05-07T06:02:46.110Z,35.22
2023-05-07T06:05:18.569Z,37.67
2023-05-07T06:07:48.448Z,35.10
2023-05-07T06:10:16.476Z,29.05
2023-05-07T06:12:44.222Z,28.63
2023-05-07T06:15:12.170Z,26.63
2023-05-07T06:17:40.908Z,30.67
2023-05-07T06:20:10.724Z,28.20
2023-05-07T06:22:39.498Z,27.33
2023-05-07T06:25:07.451Z,28.60
2023-05-07T06:27:35.276Z,27.52
2023-05-07T06:30:02.757Z,27.33
2023-05-07T06:32:30.741Z,33.90
2023-05-07T06:34:58.188Z,29.33
2023-05-07T06:37:25.788Z,28.27
2023-05-07T06:40:00.375Z,28.48
2023-05-07T06:42:28.309Z,25.65
2023-05-07T06:45:00.670Z,62.42
2023-05-07T06:47:31.384Z,81.15
2023-05-07T06:49:58.930Z,27.98
2023-05-07T06:52:30.506Z,41.13
2023-05-07T06:54:58.082Z,28.40
2023-05-07T06:57:26.867Z,25.98
2023-05-07T06:59:54.342Z,26.30
2023-05-07T07:02:22.593Z,28.17
2023-05-07T07:04:51.182Z,25.55
2023-05-07T07:07:18.660Z,26.95
2023-05-07T07:09:48.273Z,24.05
2023-05-07T07:12:18.561Z,23.38
2023-05-07T07:14:46.086Z,24.15
2023-05-07T07:17:14.294Z,26.23
2023-05-07T07:19:41.780Z,23.30
2023-05-07T07:22:10.052Z,21.98
2023-05-07T07:24:37.689Z,21.80
2023-05-07T07:27:07.973Z,18.02
2023-05-07T07:29:36.071Z,20.65
2023-05-07T07:32:04.330Z,22.45
2023-05-07T07:34:32.442Z,18.38
2023-05-07T07:37:06.277Z,19.05
2023-05-07T07:39:34.827Z,17.17
2023-05-07T07:42:02.457Z,17.08
2023-05-07T07:44:31.251Z,17.60
2023-05-07T07:47:03.559Z,16.75
2023-05-07T07:49:31.500Z,16.25
2023-05-07T07:54:48.656Z,16.20
2023-05-07T07:57:16.301Z,16.67
2023-05-07T07:59:44.461Z,17.10
2023-05-07T08:02:13.785Z,16.42
2023-05-07T08:04:41.615Z,21.25
2023-05-07T08:07:10.498Z,18.42
2023-05-07T08:09:41.907Z,19.15
2023-05-07T08:12:10.651Z,19.48
2023-05-07T08:14:39.706Z,17.88
2023-05-07T08:17:10.688Z,19.25
2023-05-07T08:19:38.786Z,17.55
2023-05-07T08:22:09.823Z,16.80
2023-05-07T08:24:37.802Z,16.75
2023-05-07T08:27:05.258Z,18.92
2023-05-07T08:29:33.290Z,18.83
2023-05-07T08:32:01.719Z,20.05
2023-05-07T08:34:29.160Z,19.50
2023-05-07T08:36:57.992Z,18.35
2023-05-07T08:39:26.281Z,16.92
2023-05-07T08:41:58.320Z,17.52
2023-05-07T08:44:31.191Z,16.73
2023-05-07T08:47:01.099Z,16.83
2023-05-07T08:49:29.465Z,14.60
2023-05-07T08:51:57.631Z,14.20
2023-05-07T08:54:26.897Z,16.02
2023-05-07T08:56:54.745Z,13.93
2023-05-07T08:59:22.255Z,15.65
2023-05-07T09:01:49.920Z,15.57
2023-05-07T09:04:18.558Z,17.10
2023-05-07T09:06:49.054Z,15.05
2023-05-07T09:09:19.730Z,15.05
2023-05-07T09:11:47.616Z,13.73
2023-05-07T09:14:17.819Z,13.75
2023-05-07T09:16:47.790Z,15.80
2023-05-07T09:19:15.780Z,19.30
2023-05-07T09:21:46.542Z,12.32
2023-05-07T09:24:17.218Z,13.13
2023-05-07T09:26:45.657Z,11.60
2023-05-07T09:29:18.026Z,14.75
2023-05-07T09:31:48.500Z,14.38
2023-05-07T09:36:46.600Z,14.95
2023-05-07T09:39:14.587Z,13.77
2023-05-07T09:41:46.735Z,14.88
2023-05-07T09:44:23.156Z,15.45
2023-05-07T09:46:56.239Z,14.85
2023-05-07T09:49:31.391Z,13.05
2023-05-07T09:52:11.306Z,12.93
2023-05-07T09:54:45.159Z,12.93
2023-05-07T09:57:15.738Z,13.57
2023-05-07T09:59:48.100Z,14.10
2023-05-07T10:02:20.388Z,13.75
2023-05-07T10:04:52.038Z,12.93
2023-05-07T10:07:25.229Z,12.63
2023-05-07T10:09:58.641Z,12.75
2023-05-07T10:12:39.690Z,11.90
2023-05-07T10:15:13.723Z,11.27
2023-05-07T10:17:43.779Z,11.00
2023-05-07T10:20:12.927Z,16.20
2023-05-07T10:22:46.494Z,7.68
2023-05-07T10:25:21.836Z,10.23
2023-05-07T10:27:53.801Z,9.52
2023-05-07T10:30:33.104Z,10.85
2023-05-07T10:33:07.265Z,15.40
2023-05-07T10:35:46.131Z,10.18
2023-05-07T10:38:14.695Z,7.93
2023-05-07T10:40:47.931Z,6.35
2023-05-07T10:43:16.233Z,6.88
2023-05-07T10:46:26.305Z,9.05
2023-05-07T10:49:14.084Z,7.13
2023-05-07T10:52:17.849Z,7.45
2023-05-07T10:55:21.035Z,8.27
2023-05-07T10:58:31.336Z,7.18
2023-05-07T11:02:08.553Z,8.18
2023-05-07T11:04:42.802Z,7.45
2023-05-07T11:07:31.999Z,10.05
2023-05-07T11:10:10.565Z,8.70
2023-05-07T11:12:45.856Z,10.32
2023-05-07T11:18:05.366Z,7.80
2023-05-07T11:20:52.524Z,11.23
2023-05-07T11:23:36.587Z,7.53
2023-05-07T11:26:13.488Z,13.23
2023-05-07T11:28:45.269Z,8.55
2023-05-07T11:31:13.030Z,9.38
2023-05-07T11:33:41.922Z,7.18
2023-05-07T11:36:14.448Z,8.20
2023-05-07T11:38:47.463Z,10.18
2023-05-07T11:41:14.992Z,9.15
2023-05-07T11:43:57.082Z,13.68
2023-05-07T11:46:24.733Z,9.40
2023-05-07T11:48:52.534Z,9.07
2023-05-07T11:51:21.989Z,12.40
2023-05-07T11:53:50.144Z,8.02
2023-05-07T11:56:19.421Z,8.20
2023-05-07T11:58:48.312Z,10.20
2023-05-07T12:01:17.472Z,9.02
2023-05-07T12:03:47.233Z,8.82
2023-05-07T12:06:17.436Z,8.50
2023-05-07T12:08:47.921Z,8.48
2023-05-07T12:11:26.289Z,7.55
2023-05-07T12:13:58.973Z,8.82
2023-05-07T12:16:28.076Z,11.18
2023-05-07T12:18:56.282Z,8.43
2023-05-07T12:21:24.350Z,8.82
2023-05-07T12:23:51.921Z,9.90
2023-05-07T12:26:22.431Z,9.43
2023-05-07T12:31:19.258Z,9.43
2023-05-07T12:33:46.917Z,10.95
2023-05-07T12:36:14.956Z,12.80
2023-05-07T12:38:42.385Z,9.43
2023-05-07T12:41:11.787Z,11.25
2023-05-07T12:43:39.797Z,7.65
2023-05-07T12:46:09.234Z,14.90
2023-05-07T12:48:46.599Z,11.60
2023-05-07T12:51:16.092Z,9.48
2023-05-07T12:53:44.342Z,8.45
2023-05-07T12:56:11.924Z,7.97
2023-05-07T12:58:39.413Z,8.25
2023-05-07T13:01:08.800Z,8.77
2023-05-07T13:03:38.181Z,11.55
2023-05-07T13:06:13.741Z,8.45
2023-05-07T13:08:44.360Z,9.60
2023-05-07T13:11:12.920Z,9.20
2023-05-07T13:13:41.678Z,11.30
2023-05-07T13:16:11.538Z,8.55
2023-05-07T13:18:40.907Z,8.45
2023-05-07T13:21:08.723Z,8.50
2023-05-07T13:23:36.417Z,10.45
2023-05-07T13:26:08.585Z,9.05
2023-05-07T13:28:39.076Z,8.32
2023-05-07T13:31:06.538Z,8.27
2023-05-07T13:33:33.937Z,8.57
2023-05-07T13:36:01.765Z,8.32
2023-05-07T13:38:29.129Z,8.38
2023-05-07T13:40:56.557Z,11.82
2023-05-07T13:43:24.044Z,12.02
2023-05-07T13:45:51.500Z,11.73
2023-05-07T13:48:18.985Z,8.65
2023-05-07T13:50:46.446Z,10.45
2023-05-07T13:53:13.793Z,9.65
2023-05-07T13:55:41.213Z,9.70
2023-05-07T13:58:08.587Z,10.95
2023-05-07T14:00:36.424Z,9.70
2023-05-07T14:03:05.988Z,10.45
2023-05-07T14:05:33.459Z,11.15
2023-05-07T14:08:01.139Z,15.52
2023-05-07T14:10:28.534Z,9.27
2023-05-07T14:12:56.063Z,9.82
2023-05-07T14:15:23.556Z,9.02
2023-05-07T14:17:51.087Z,8.63
2023-05-07T14:20:18.683Z,9.15
2023-05-07T14:22:46.306Z,10.80
2023-05-07T14:25:14.636Z,9.60
2023-05-07T14:27:44.342Z,9.60
2023-05-07T14:30:13.876Z,7.90
2023-05-07T14:32:42.195Z,9.68
2023-05-07T14:35:10.046Z,10.50
2023-05-07T14:37:38.470Z,8.75
2023-05-07T14:40:07.265Z,9.40
2023-05-07T14:42:34.717Z,9.68
2023-05-07T14:45:02.617Z,9.50
2023-05-07T14:47:30.178Z,12.27
2023-05-07T14:49:58.365Z,10.98
2023-05-07T14:52:27.072Z,13.05
2023-05-07T14:54:54.526Z,10.57
2023-05-07T14:57:22.149Z,12.52
2023-05-07T14:59:50.182Z,10.23
2023-05-07T15:02:20.996Z,10.50
2023-05-07T15:04:49.636Z,11.70
2023-05-07T15:07:17.224Z,11.25
2023-05-07T15:09:45.203Z,9.70
2023-05-07T15:12:12.847Z,10.45
2023-05-07T15:14:40.765Z,8.80
2023-05-07T15:17:08.668Z,9.32
2023-05-07T15:19:36.514Z,9.48
2023-05-07T15:22:04.073Z,10.27
2023-05-07T15:24:31.912Z,9.00
2023-05-07T15:26:59.500Z,9.77
2023-05-07T15:29:26.913Z,9.50
2023-05-07T15:31:55.991Z,11.38
2023-05-07T15:34:25.046Z,9.70
2023-05-07T15:36:52.514Z,8.48
2023-05-07T15:39:19.933Z,12.73
2023-05-07T15:41:47.305Z,9.20
2023-05-07T15:44:14.787Z,8.85
2023-05-07T15:46:43.144Z,11.63
2023-05-07T15:49:10.706Z,9.52
2023-05-07T15:51:38.226Z,11.00
2023-05-07T15:54:06.140Z,11.25
2023-05-07T15:56:33.982Z,9.70
2023-05-07T15:59:02.232Z,11.23
2023-05-07T16:01:29.688Z,8.88
2023-05-07T16:03:57.191Z,8.40
2023-05-07T16:06:24.688Z,9.05
2023-05-07T16:08:52.193Z,11.25
2023-05-07T16:11:19.616Z,9.57
2023-05-07T16:13:47.040Z,10.02
2023-05-07T16:16:14.523Z,7.93
2023-05-07T16:18:41.967Z,11.65
2023-05-07T16:21:09.445Z,13.30
2023-05-07T16:23:37.262Z,10.75
2023-05-07T16:26:05.186Z,9.68
2023-05-07T16:28:32.624Z,15.85
2023-05-07T16:30:59.995Z,9.57
2023-05-07T16:33:27.480Z,9.05
2023-05-07T16:35:57.370Z,10.32
2023-05-07T16:38:26.177Z,11.00
2023-05-07T16:40:53.550Z,10.98
2023-05-07T16:43:20.903Z,9.60
2023-05-07T16:45:48.516Z,10.40
2023-05-07T16:48:15.959Z,9.95
2023-05-07T16:50:44.507Z,10.85
2023-05-07T16:53:12.093Z,9.32
2023-05-07T16:55:40.990Z,11.93
2023-05-07T16:58:10.165Z,12.05
2023-05-07T17:00:50.075Z,9.63
2023-05-07T17:03:19.339Z,9.32
2023-05-07T17:05:47.187Z,10.65
2023-05-07T17:08:14.783Z,10.00
2023-05-07T17:10:42.423Z,8.77
2023-05-07T17:13:09.869Z,8.80
2023-05-07T17:15:37.441Z,9.30
2023-05-07T17:18:04.994Z,8.52
2023-05-07T17:20:32.450Z,9.90
2023-05-07T17:22:59.897Z,13.80
2023-05-07T17:25:27.269Z,8.90
2023-05-07T17:27:54.655Z,9.52
2023-05-07T17:30:22.121Z,8.98
2023-05-07T17:32:49.611Z,8.35
2023-05-07T17:35:17.127Z,8.07
2023-05-07T17:37:52.555Z,8.68
2023-05-07T17:40:22.335Z,8.80
2023-05-07T17:42:52.319Z,14.90
2023-05-07T17:45:21.318Z,8.95
2023-05-07T17:47:48.756Z,11.60
2023-05-07T17:50:16.184Z,8.00
2023-05-07T17:52:43.604Z,7.10
2023-05-07T17:55:11.225Z,7.75
2023-05-07T17:57:38.789Z,7.53
2023-05-07T18:00:11.018Z,9.23
2023-05-07T18:02:38.941Z,9.05
2023-05-07T18:05:07.111Z,6.32
2023-05-07T18:07:35.189Z,8.88
2023-05-07T18:10:03.118Z,5.97
2023-05-07T18:12:30.589Z,12.95
2023-05-07T18:14:58.003Z,8.82
2023-05-07T18:17:26.437Z,6.05
2023-05-07T18:19:55.387Z,6.55
2023-05-07T18:22:23.015Z,6.32
2023-05-07T18:24:51.011Z,9.93
2023-05-07T18:27:18.706Z,10.00
2023-05-07T18:29:46.421Z,10.43
2023-05-07T18:32:14.139Z,17.65
2023-05-07T18:34:41.735Z,14.80
2023-05-07T18:37:09.206Z,14.20
2023-05-07T18:39:36.774Z,14.88
2023-05-07T18:42:08.572Z,16.70
2023-05-07T18:44:38.843Z,14.43
2023-05-07T18:47:06.668Z,14.82
2023-05-07T18:49:34.942Z,14.63
2023-05-07T18:52:02.682Z,20.38
2023-05-07T18:54:30.419Z,18.20
2023-05-07T18:56:57.956Z,19.05
2023-05-07T18:59:25.348Z,17.88
2023-05-07T19:01:52.805Z,19.15
2023-05-07T19:04:20.603Z,19.27
2023-05-07T19:06:48.094Z,20.70
2023-05-07T19:09:15.549Z,18.15
2023-05-07T19:11:42.953Z,17.90
2023-05-07T19:14:11.079Z,20.05
2023-05-07T19:19:06.688Z,19.75
2023-05-07T19:21:34.097Z,19.33
2023-05-07T19:24:01.467Z,20.33
2023-05-07T19:26:29.000Z,21.42
2023-05-07T19:29:12.298Z,21.48
2023-05-07T19:31:44.539Z,25.95
2023-05-07T19:34:14.059Z,22.08
2023-05-07T19:36:41.996Z,22.90
2023-05-07T19:39:09.399Z,22.85
2023-05-07T19:41:37.098Z,22.38
2023-05-07T19:44:04.684Z,24.98
2023-05-07T19:46:32.160Z,22.20
2023-05-07T19:48:59.599Z,23.35
2023-05-07T19:51:28.776Z,24.17
2023-05-07T19:53:56.148Z,22.98
2023-05-07T19:56:23.553Z,22.58
2023-05-07T19:58:51.887Z,22.95
2023-05-07T20:01:19.349Z,28.23
2023-05-07T20:03:47.291Z,25.25
2023-05-07T20:06:14.804Z,23.45
2023-05-07T20:08:43.385Z,26.33
2023-05-07T20:11:12.737Z,22.88
2023-05-07T20:13:40.233Z,23.13
2023-05-07T20:16:07.732Z,24.80
2023-05-07T20:18:35.345Z,27.55
2023-05-07T20:21:04.519Z,23.85
2023-05-07T20:23:31.961Z,26.90
2023-05-07T20:25:59.367Z,25.95
2023-05-07T20:28:27.564Z,24.00
2023-05-07T20:30:55.413Z,25.90
2023-05-07T20:33:22.880Z,25.55
2023-05-07T20:35:50.354Z,24.63
2023-05-07T20:38:17.901Z,32.28
2023-05-07T20:40:45.346Z,25.20
2023-05-07T20:43:12.794Z,24.75
2023-05-07T20:45:40.257Z,25.83
2023-05-07T20:48:07.802Z,23.52
2023-05-07T20:50:35.391Z,23.42
2023-05-07T20:53:02.885Z,23.25
2023-05-07T20:55:30.340Z,23.77
2023-05-07T20:57:57.753Z,22.85
2023-05-07T21:00:25.245Z,22.50
2023-05-07T21:02:53.341Z,24.80
2023-05-07T21:05:20.900Z,21.67
2023-05-07T21:07:48.303Z,22.55
2023-05-07T21:10:15.780Z,23.15
2023-05-07T21:12:43.249Z,23.52
2023-05-07T21:15:11.200Z,23.08
2023-05-07T21:17:38.571Z,22.05
2023-05-07T21:20:06.800Z,22.35
2023-05-07T21:22:34.371Z,21.42
2023-05-07T21:25:01.904Z,20.65
2023-05-07T21:27:29.497Z,22.05
2023-05-07T21:30:03.264Z,18.15
2023-05-07T21:32:31.019Z,20.73
2023-05-07T21:35:00.462Z,19.45
2023-05-07T21:37:27.905Z,20.40
2023-05-07T21:39:55.417Z,18.48
2023-05-07T21:42:23.466Z,17.60
2023-05-07T21:44:52.681Z,17.48
2023-05-07T21:47:20.108Z,16.95
2023-05-07T21:49:47.522Z,18.23
2023-05-07T21:52:16.944Z,18.80
2023-05-07T21:54:44.467Z,14.77
2023-05-07T21:57:11.861Z,31.13
2023-05-07T21:59:39.210Z,26.50
2023-05-07T22:02:06.745Z,14.32
2023-05-07T22:04:34.107Z,17.27
2023-05-07T22:07:01.772Z,33.45
2023-05-07T22:09:29.260Z,21.30
2023-05-07T22:11:56.648Z,2.00
2023-05-07T22:14:24.006Z,7.32
2023-05-07T22:16:51.629Z,2.85
2023-05-07T22:19:19.175Z,10.27
2023-05-07T22:21:46.577Z,6.82
2023-05-07T22:24:13.957Z,2.88
2023-05-07T22:26:41.461Z,3.70
2023-05-07T22:29:08.867Z,3.13
2023-05-07T22:31:36.319Z,7.03
2023-05-07T22:34:03.781Z,6.72
2023-05-07T22:36:31.338Z,7.05
2023-05-07T22:38:58.698Z,10.57
2023-05-07T22:41:26.972Z,8.55
2023-05-07T22:43:54.653Z,5.95
2023-05-07T22:46:23.729Z,5.97
2023-05-07T22:48:51.181Z,7.93
2023-05-07T22:51:18.566Z,6.25
2023-05-07T22:53:46.574Z,8.43
2023-05-07T22:56:17.048Z,5.93
2023-05-07T22:58:44.438Z,5.80
2023-05-07T23:01:13.883Z,5.63
2023-05-07T23:03:41.552Z,6.13
2023-05-07T23:06:09.079Z,7.22
2023-05-07T23:08:36.567Z,3.88
2023-05-07T23:11:04.123Z,9.85
2023-05-07T23:13:31.835Z,8.25
2023-05-07T23:15:59.281Z,7.85
2023-05-07T23:18:28.091Z,6.90
2023-05-07T23:20:55.565Z,5.93
2023-05-07T23:23:23.028Z,8.75
2023-05-07T23:25:53.616Z,6.53
2023-05-07T23:28:21.614Z,6.90
2023-05-07T23:30:49.072Z,7.85
2023-05-07T23:33:16.502Z,3.75
2023-05-07T23:35:43.858Z,7.45
2023-05-07T23:38:11.234Z,7.97
2023-05-07T23:40:38.671Z,6.43
2023-05-07T23:43:06.030Z,8.85
2023-05-07T23:45:33.437Z,8.73
2023-05-07T23:48:00.848Z,9.57
2023-05-07T23:50:28.259Z,4.25
2023-05-07T23:52:56.490Z,6.93
2023-05-07T23:55:23.909Z,6.93
2023-05-07T23:57:51.378Z,6.13
